Time;durP1;ratioP1;P1;durP2;ratioP2;P2;SDS_P1;SDS_P2;PMS_P1;PMS_P2;Temp;Humidity;BMP_temperature;BMP_pressure;BME280_temperature;BME280_humidity;BME280_pressure;Samples;Min_cycle;Max_cycle;Signal;HPM_P1;HPM_P2
2023/08/12 00:00:10;;;;;;;4.70;3.70;;;;;;;25.08;48.57;101691.69;110545;1268;22291;-50
2023/08/12 00:02:43;;;;;;;4.00;3.60;;;;;;;25.06;48.26;101693.48;110467;1259;22171;-50
2023/08/12 00:05:10;;;;;;;;;;;;;;;25.01;48.08;101692.55;110247;1272;22437;-50
2023/08/12 00:07:41;;;;;;;5.00;3.80;;;;;;;25.00;48.26;101700.93;110590;1260;23088;-50
2023/08/12 00:10:10;;;;;;;6.90;3.30;;;;;;;25.01;48.68;101700.91;110526;1267;22313;-50
2023/08/12 00:12:38;;;;;;;6.60;4.00;;;;;;;24.98;48.99;101702.33;110168;1262;22375;-50
2023/08/12 00:15:07;;;;;;;3.60;3.20;;;;;;;24.99;49.47;101698.39;110595;1253;22445;-50
2023/08/12 00:17:37;;;;;;;5.80;3.60;;;;;;;24.98;49.48;101702.33;110504;1275;22155;-49
2023/08/12 00:20:10;;;;;;;5.10;3.70;;;;;;;24.95;49.81;101704.86;110547;1275;22294;-50
2023/08/12 00:22:39;;;;;;;4.10;3.60;;;;;;;24.97;50.03;101708.98;110342;1267;22349;-50
2023/08/12 00:25:07;;;;;;;7.30;3.50;;;;;;;24.96;49.47;101706.40;110579;1254;22837;-50
2023/08/12 00:27:34;;;;;;;8.20;4.30;;;;;;;24.94;49.93;101705.27;110527;1262;22390;-51
2023/08/12 00:30:02;;;;;;;6.20;3.60;;;;;;;24.94;50.16;101703.52;110580;1256;23061;-50
2023/08/12 00:32:30;;;;;;;7.80;3.60;;;;;;;24.93;50.39;101707.27;110614;1257;23093;-50
2023/08/12 00:34:57;;;;;;;6.90;3.70;;;;;;;24.92;49.84;101704.16;110513;1269;22377;-51
2023/08/12 00:37:25;;;;;;;10.20;3.60;;;;;;;24.90;49.48;101700.58;110378;1256;22153;-49
2023/08/12 00:39:52;;;;;;;5.70;3.60;;;;;;;24.88;49.10;101703.40;110252;1275;23024;-50
2023/08/12 00:42:20;;;;;;;4.40;3.50;;;;;;;24.86;49.64;101702.27;110248;1256;22355;-50
2023/08/12 00:44:48;;;;;;;4.40;3.70;;;;;;;24.85;50.13;101705.91;110554;1269;22114;-50
2023/08/12 00:47:16;;;;;;;5.00;4.00;;;;;;;24.84;50.61;101704.88;110560;1275;22400;-50
2023/08/12 00:49:45;;;;;;;5.30;4.40;;;;;;;24.84;51.13;101707.02;110558;1267;22370;-50
2023/08/12 00:52:13;;;;;;;6.10;3.60;;;;;;;24.82;51.58;101708.00;110599;1253;22382;-50
2023/08/12 00:54:41;;;;;;;6.40;3.90;;;;;;;24.79;51.69;101707.02;110572;1255;22402;-50
2023/08/12 00:57:08;;;;;;;6.90;3.70;;;;;;;24.75;51.59;101705.66;110438;1270;22369;-50
2023/08/12 00:59:37;;;;;;;6.20;4.00;;;;;;;24.73;51.85;101707.36;110536;1269;22843;-50
2023/08/12 01:02:04;;;;;;;5.40;4.00;;;;;;;24.71;52.10;101707.34;110323;1267;22279;-50
2023/08/12 01:04:32;;;;;;;7.30;4.00;;;;;;;24.68;52.03;101711.81;110537;1254;22160;-50
2023/08/12 01:06:59;;;;;;;7.90;4.20;;;;;;;24.66;51.84;101714.55;109820;1269;1002382;-50
2023/08/12 01:09:27;;;;;;;5.60;3.70;;;;;;;24.67;51.84;101717.38;110560;1269;22398;-50
2023/08/12 01:11:58;;;;;;;5.50;3.90;;;;;;;24.65;51.74;101721.52;110411;1259;22857;-50
2023/08/12 01:14:35;;;;;;;5.20;4.00;;;;;;;24.65;50.97;101722.80;110419;1270;22286;-49
2023/08/12 01:17:04;;;;;;;8.60;4.20;;;;;;;24.63;50.65;101724.51;110490;1258;22458;-50
2023/08/12 01:19:38;;;;;;;5.10;4.20;;;;;;;24.61;50.47;101726.98;110186;1259;22133;-50
2023/08/12 01:22:10;;;;;;;5.40;4.20;;;;;;;24.57;50.61;101729.05;110606;1253;23156;-50
2023/08/12 01:24:41;;;;;;;7.30;4.30;;;;;;;24.57;50.61;101729.91;110552;1267;22151;-50
2023/08/12 01:27:10;;;;;;;5.20;4.20;;;;;;;24.53;50.87;101725.16;110572;1267;22337;-51
2023/08/12 01:29:44;;;;;;;5.90;4.30;;;;;;;24.53;50.80;101723.98;110267;1260;22455;-50
2023/08/12 01:32:13;;;;;;;4.80;4.30;;;;;;;24.51;50.68;101723.91;110551;1253;22404;-50
2023/08/12 01:34:54;;;;;;;4.80;4.10;;;;;;;24.46;50.66;101724.76;110557;1275;22375;-50
2023/08/12 01:37:24;;;;;;;8.90;4.00;;;;;;;24.45;51.27;101731.38;110320;1275;22145;-50
2023/08/12 01:39:52;;;;;;;5.20;4.30;;;;;;;24.44;51.46;101734.33;110574;1253;22157;-50
2023/08/12 01:42:20;;;;;;;4.80;4.20;;;;;;;24.44;51.01;101736.29;110438;1272;22323;-50
2023/08/12 01:44:47;;;;;;;10.00;4.20;;;;;;;24.42;51.00;101732.67;110500;1260;23060;-50
2023/08/12 01:47:15;;;;;;;6.10;4.20;;;;;;;24.41;50.93;101730.98;110443;1259;23064;-50
2023/08/12 01:49:42;;;;;;;8.10;4.80;;;;;;;24.39;50.83;101730.71;110562;1253;22306;-50
2023/08/12 01:52:10;;;;;;;6.30;3.90;;;;;;;24.34;51.01;101736.56;110547;1270;22380;-50
2023/08/12 01:54:38;;;;;;;8.10;3.90;;;;;;;24.33;51.20;101738.02;110610;1253;22301;-50
2023/08/12 01:57:07;;;;;;;5.80;4.00;;;;;;;24.35;51.20;101738.77;110565;1256;22346;-50
2023/08/12 01:59:38;;;;;;;5.60;4.10;;;;;;;24.33;51.64;101733.97;110481;1267;22813;-49
2023/08/12 02:02:05;;;;;;;5.70;4.30;;;;;;;24.30;51.85;101733.80;110600;1267;22165;-50
2023/08/12 02:04:33;;;;;;;5.30;3.90;;;;;;;24.14;52.01;101732.33;110561;1269;22175;-49
2023/08/12 02:07:01;;;;;;;5.60;4.40;;;;;;;24.12;52.04;101731.01;110392;1271;22365;-49
2023/08/12 02:09:29;;;;;;;6.30;3.90;;;;;;;24.03;52.43;101736.86;110223;1256;22385;-50
2023/08/12 02:11:56;;;;;;;13.00;4.10;;;;;;;23.99;52.59;101736.55;110400;1260;22103;-50
2023/08/12 02:14:24;;;;;;;7.10;4.30;;;;;;;23.98;52.90;101742.65;110280;1260;22386;-50
2023/08/12 02:16:52;;;;;;;4.80;4.30;;;;;;;23.97;52.93;101737.79;110575;1256;22933;-50
2023/08/12 02:19:21;;;;;;;5.90;4.10;;;;;;;23.96;53.07;101741.90;110628;1257;23172;-50
2023/08/12 02:21:49;;;;;;;5.00;4.10;;;;;;;23.94;53.01;101746.65;110245;1260;22342;-50
2023/08/12 02:24:16;;;;;;;5.60;4.00;;;;;;;23.91;52.97;101749.88;110560;1269;22331;-49
2023/08/12 02:26:44;;;;;;;8.20;4.40;;;;;;;23.88;53.22;101752.02;110622;1255;22413;-51
2023/08/12 02:29:11;;;;;;;6.10;4.40;;;;;;;23.85;53.10;101755.16;110566;1259;22150;-50
2023/08/12 02:31:39;;;;;;;4.60;4.10;;;;;;;23.83;53.11;101761.34;110654;1254;22273;-50
2023/08/12 02:34:07;;;;;;;4.90;4.20;;;;;;;23.80;53.40;101763.78;110210;1257;22232;-50
2023/08/12 02:36:34;;;;;;;8.10;3.90;;;;;;;23.80;53.56;101763.30;110606;1253;22389;-50
2023/08/12 02:39:02;;;;;;;7.40;3.90;;;;;;;23.79;53.78;101768.45;110629;1253;22414;-50
2023/08/12 02:41:31;;;;;;;7.10;3.90;;;;;;;23.88;53.53;101769.90;110576;1269;22300;-50
2023/08/12 02:43:58;;;;;;;5.80;4.20;;;;;;;23.86;53.36;101774.79;110570;1269;22349;-50
2023/08/12 02:46:26;;;;;;;7.20;4.30;;;;;;;23.77;53.97;101778.54;110516;1276;22267;-50
2023/08/12 02:48:53;;;;;;;6.80;4.30;;;;;;;23.73;53.95;101777.56;110555;1258;22154;-51
2023/08/12 02:51:21;;;;;;;6.30;4.80;;;;;;;23.72;54.22;101780.77;110546;1272;22379;-51
2023/08/12 02:53:48;;;;;;;5.30;4.00;;;;;;;23.70;54.10;101779.99;110593;1270;22617;-50
2023/08/12 02:56:16;;;;;;;5.90;3.90;;;;;;;23.68;54.28;101787.61;110560;1256;23029;-50
2023/08/12 02:58:44;;;;;;;4.70;4.20;;;;;;;23.66;54.14;101795.88;110539;1275;22120;-50
2023/08/12 03:01:11;;;;;;;6.20;4.40;;;;;;;23.65;53.74;101798.95;110569;1256;23037;-51
2023/08/12 03:03:39;;;;;;;7.00;4.00;;;;;;;23.64;53.79;101799.14;110561;1268;22157;-50
2023/08/12 03:06:06;;;;;;;6.30;4.70;;;;;;;23.65;54.23;101809.38;110567;1253;22295;-50
2023/08/12 03:08:34;;;;;;;4.10;3.80;;;;;;;23.66;54.25;101808.08;110339;1272;22138;-50
2023/08/12 03:11:02;;;;;;;6.40;4.50;;;;;;;23.63;54.23;101808.32;110576;1267;22332;-50
2023/08/12 03:13:30;;;;;;;5.40;4.00;;;;;;;23.60;54.54;101808.44;109781;1267;1002333;-50
2023/08/12 03:15:58;;;;;;;5.40;4.40;;;;;;;23.60;54.86;101810.39;110486;1258;22268;-50
2023/08/12 03:18:26;;;;;;;4.90;3.90;;;;;;;23.61;54.82;101812.85;110176;1273;23031;-49
2023/08/12 03:20:53;;;;;;;4.10;3.70;;;;;;;23.61;54.73;101813.36;110507;1259;22156;-50
2023/08/12 03:23:22;;;;;;;5.90;4.10;;;;;;;23.62;54.89;101811.38;110507;1272;22331;-50
2023/08/12 03:25:50;;;;;;;5.70;3.90;;;;;;;23.61;54.74;101812.84;110559;1253;22150;-50
2023/08/12 03:28:17;;;;;;;4.60;3.90;;;;;;;23.57;54.73;101811.48;110589;1257;22123;-50
2023/08/12 03:30:52;;;;;;;6.70;3.90;;;;;;;23.57;54.85;101817.33;110606;1258;22311;-50
2023/08/12 03:33:21;;;;;;;6.00;4.20;;;;;;;23.58;54.62;101817.44;110536;1275;22354;-50
2023/08/12 03:35:49;;;;;;;3.70;3.40;;;;;;;23.58;54.79;101821.30;110493;1275;22388;-51
2023/08/12 03:38:16;;;;;;;7.10;4.50;;;;;;;23.58;54.85;101822.54;110295;1260;23116;-51
2023/08/12 03:40:45;;;;;;;5.00;4.10;;;;;;;23.53;54.80;101821.79;110548;1257;22154;-50
2023/08/12 03:43:14;;;;;;;5.60;4.30;;;;;;;23.50;55.02;101825.36;110437;1273;22385;-50
2023/08/12 03:45:42;;;;;;;5.30;4.10;;;;;;;23.50;54.74;101830.15;110304;1272;22279;-51
2023/08/12 03:48:11;;;;;;;5.90;3.90;;;;;;;23.50;54.76;101832.42;110152;1275;22289;-50
2023/08/12 03:50:39;;;;;;;6.90;4.00;;;;;;;23.49;54.89;101832.33;110588;1256;22300;-50
2023/08/12 03:53:08;;;;;;;5.90;3.90;;;;;;;23.49;54.58;101835.88;110343;1259;23053;-50
2023/08/12 03:55:36;;;;;;;6.60;4.00;;;;;;;23.45;54.82;101836.98;110581;1256;22314;-50
2023/08/12 03:58:04;;;;;;;7.20;4.30;;;;;;;23.52;54.65;101835.68;110588;1257;22407;-50
2023/08/12 04:00:32;;;;;;;7.10;4.10;;;;;;;23.47;54.69;101839.00;110472;1258;22743;-51
2023/08/12 04:03:00;;;;;;;4.00;3.50;;;;;;;23.47;54.75;101836.88;110365;1270;22178;-50
2023/08/12 04:05:28;;;;;;;7.40;3.90;;;;;;;23.48;54.80;101834.68;110270;1259;22420;-50
2023/08/12 04:07:56;;;;;;;7.50;4.10;;;;;;;23.45;54.99;101836.77;110360;1257;22346;-50
2023/08/12 04:10:24;;;;;;;6.10;4.20;;;;;;;23.47;54.68;101834.19;110088;1263;23026;-50
2023/08/12 04:12:53;;;;;;;4.60;3.90;;;;;;;23.47;54.82;101833.52;110002;1264;22189;-50
2023/08/12 04:15:20;;;;;;;5.70;3.90;;;;;;;23.48;54.80;101837.52;110089;1274;22187;-50
2023/08/12 04:17:48;;;;;;;4.80;4.10;;;;;;;23.48;54.86;101835.55;110093;1261;22337;-50
2023/08/12 04:20:16;;;;;;;6.40;4.00;;;;;;;23.46;55.09;101834.80;110090;1275;23045;-50
2023/08/12 04:22:43;;;;;;;4.20;3.80;;;;;;;23.46;55.17;101840.65;110044;1279;22214;-50
2023/08/12 04:25:14;;;;;;;5.50;3.80;;;;;;;23.49;55.08;101837.44;110081;1258;22203;-51
2023/08/12 04:27:42;;;;;;;7.10;3.90;;;;;;;23.52;55.34;101844.70;110146;1259;22327;-50
2023/08/12 04:30:10;;;;;;;4.40;3.80;;;;;;;23.53;55.10;101844.14;110030;1275;22353;-50
2023/08/12 04:32:38;;;;;;;4.70;4.20;;;;;;;23.53;55.03;101842.89;109979;1264;22188;-50
2023/08/12 04:35:07;;;;;;;5.40;4.00;;;;;;;23.53;54.99;101839.84;110213;1262;22409;-51
2023/08/12 04:37:36;;;;;;;6.30;4.10;;;;;;;23.54;55.01;101844.92;110010;1276;22387;-50
2023/08/12 04:40:07;;;;;;;4.30;3.90;;;;;;;23.55;55.24;101842.74;110188;1272;22338;-50
2023/08/12 04:42:34;;;;;;;4.90;3.60;;;;;;;23.55;55.22;101842.58;110611;1259;22897;-50
2023/08/12 04:45:03;;;;;;;4.80;4.10;;;;;;;23.55;55.00;101844.17;110619;1257;22302;-50
2023/08/12 04:47:31;;;;;;;5.10;4.20;;;;;;;23.55;55.16;101839.55;110526;1253;22844;-50
2023/08/12 04:49:59;;;;;;;4.10;3.50;;;;;;;23.55;54.98;101841.49;110360;1277;23132;-50
2023/08/12 04:52:28;;;;;;;4.90;3.70;;;;;;;23.56;54.95;101842.52;110360;1272;22347;-50
2023/08/12 04:54:56;;;;;;;6.30;4.10;;;;;;;23.57;55.01;101840.53;110300;1259;22184;-50
2023/08/12 04:57:24;;;;;;;4.70;4.20;;;;;;;23.59;55.00;101841.30;110248;1272;22130;-50
2023/08/12 04:59:51;;;;;;;5.10;3.90;;;;;;;23.60;55.04;101844.76;110222;1259;22330;-50
2023/08/12 05:02:20;;;;;;;5.70;4.40;;;;;;;23.62;55.13;101846.42;110235;1276;22185;-50
2023/08/12 05:04:49;;;;;;;4.50;4.10;;;;;;;23.62;55.33;101843.05;110026;1264;22204;-50
2023/08/12 05:07:17;;;;;;;4.50;4.10;;;;;;;23.63;55.36;101841.95;110087;1277;22319;-50
2023/08/12 05:09:45;;;;;;;6.80;4.00;;;;;;;23.63;55.42;101845.09;110323;1259;22954;-50
2023/08/12 05:12:14;;;;;;;4.60;4.10;;;;;;;23.64;55.56;101849.28;109986;1277;23127;-50
2023/08/12 05:14:41;;;;;;;9.50;4.40;;;;;;;23.65;55.68;101849.08;110032;1263;23082;-50
2023/08/12 05:17:09;;;;;;;4.40;4.00;;;;;;;23.66;55.47;101848.48;110353;1259;22396;-50
2023/08/12 05:19:37;;;;;;;6.20;3.70;;;;;;;23.67;55.60;101853.23;110206;1277;22167;-50
2023/08/12 05:22:05;;;;;;;7.80;4.50;;;;;;;23.68;55.41;101848.70;110247;1262;22159;-50
2023/08/12 05:24:32;;;;;;;4.80;3.90;;;;;;;23.69;55.64;101849.54;110627;1256;22307;-51
2023/08/12 05:27:00;;;;;;;5.40;3.70;;;;;;;23.72;55.42;101852.90;110566;1255;22154;-50
2023/08/12 05:29:27;;;;;;;5.40;4.00;;;;;;;23.74;55.16;101857.73;110274;1262;22315;-50
2023/08/12 05:31:55;;;;;;;5.10;4.00;;;;;;;23.74;54.69;101855.64;110407;1258;22164;-49
2023/08/12 05:34:23;;;;;;;7.00;4.50;;;;;;;23.76;54.71;101858.83;110535;1268;22160;-50
2023/08/12 05:36:50;;;;;;;6.00;4.10;;;;;;;23.80;54.72;101857.73;110576;1256;22308;-50
2023/08/12 05:39:18;;;;;;;5.70;3.90;;;;;;;23.85;54.89;101856.71;110543;1267;22356;-50
2023/08/12 05:41:46;;;;;;;5.90;4.10;;;;;;;23.99;54.73;101855.70;110576;1272;22805;-50
2023/08/12 05:44:14;;;;;;;5.20;4.30;;;;;;;24.18;54.42;101854.92;110591;1269;22401;-50
2023/08/12 05:46:41;;;;;;;5.80;4.10;;;;;;;24.38;53.93;101855.67;110591;1267;23027;-50
2023/08/12 05:49:09;;;;;;;7.50;4.60;;;;;;;24.53;53.77;101858.61;110548;1269;22173;-51
2023/08/12 05:51:38;;;;;;;4.30;3.90;;;;;;;24.65;53.27;101859.58;110588;1257;22130;-50
2023/08/12 05:54:05;;;;;;;4.50;3.70;;;;;;;24.77;53.00;101855.31;110567;1256;22278;-50
2023/08/12 05:56:33;;;;;;;6.60;4.50;;;;;;;24.88;52.59;101862.23;110333;1259;22168;-50
2023/08/12 05:59:00;;;;;;;6.30;4.40;;;;;;;24.97;52.28;101865.70;110588;1259;22822;-50
2023/08/12 06:01:28;;;;;;;6.10;4.60;;;;;;;25.05;52.11;101865.39;110294;1259;22946;-50
2023/08/12 06:03:56;;;;;;;6.10;3.90;;;;;;;25.13;51.91;101867.38;110611;1271;22436;-49
2023/08/12 06:06:23;;;;;;;5.40;4.50;;;;;;;25.19;51.51;101862.51;110621;1254;23247;-50
2023/08/12 06:08:51;;;;;;;5.00;4.40;;;;;;;25.26;51.12;101855.98;110320;1259;22149;-49
2023/08/12 06:11:18;;;;;;;5.60;4.30;;;;;;;25.35;50.92;101858.58;110592;1259;22354;-49
2023/08/12 06:13:46;;;;;;;4.50;4.10;;;;;;;25.39;51.04;101856.36;110282;1260;22289;-50
2023/08/12 06:16:14;;;;;;;5.70;4.30;;;;;;;25.39;51.29;101855.65;110541;1259;22139;-51
2023/08/12 06:18:42;;;;;;;4.60;3.90;;;;;;;25.38;51.19;101858.20;110587;1270;22383;-50
2023/08/12 06:21:09;;;;;;;5.10;4.60;;;;;;;25.35;51.35;101855.42;110566;1256;22142;-50
2023/08/12 06:23:37;;;;;;;5.40;4.10;;;;;;;25.33;51.26;101860.36;110592;1256;22384;-50
2023/08/12 06:26:04;;;;;;;5.70;4.50;;;;;;;25.31;51.16;101861.71;110535;1275;22285;-50
2023/08/12 06:28:32;;;;;;;8.50;4.20;;;;;;;25.31;51.39;101859.23;110542;1270;22127;-50
2023/08/12 06:30:59;;;;;;;5.00;4.10;;;;;;;25.32;51.57;101860.91;110174;1275;22297;-50
2023/08/12 06:33:27;;;;;;;4.40;4.00;;;;;;;25.31;51.44;101860.80;110647;1258;22144;-51
2023/08/12 06:35:55;;;;;;;6.20;4.50;;;;;;;25.32;51.42;101862.92;110344;1260;22369;-50
2023/08/12 06:38:22;;;;;;;7.20;4.10;;;;;;;25.32;51.52;101865.70;110517;1275;22126;-50
2023/08/12 06:40:50;;;;;;;4.90;4.10;;;;;;;25.35;51.79;101870.32;110564;1260;23031;-49
2023/08/12 06:43:17;;;;;;;5.30;4.20;;;;;;;25.38;51.60;101873.32;110443;1259;22157;-51
2023/08/12 06:45:45;;;;;;;5.40;4.20;;;;;;;25.38;51.51;101875.77;110321;1273;22142;-50
2023/08/12 06:48:12;;;;;;;5.70;4.40;;;;;;;25.43;51.31;101875.86;110630;1256;22341;-50
2023/08/12 06:50:40;;;;;;;5.00;4.50;;;;;;;25.48;51.33;101875.52;110635;1256;22133;-51
2023/08/12 06:53:08;;;;;;;5.60;4.20;;;;;;;25.54;51.02;101877.28;110232;1262;22386;-50
2023/08/12 06:55:35;;;;;;;4.90;4.40;;;;;;;25.61;50.39;101874.65;110640;1256;22146;-50
2023/08/12 06:58:03;;;;;;;8.50;4.10;;;;;;;25.66;50.05;101876.97;110271;1260;22293;-51
2023/08/12 07:00:31;;;;;;;6.40;4.00;;;;;;;25.70;49.89;101881.15;110611;1256;22994;-50
2023/08/12 07:02:58;;;;;;;5.10;4.10;;;;;;;25.72;49.64;101881.89;110571;1271;22294;-51
2023/08/12 07:05:26;;;;;;;4.50;4.10;;;;;;;25.74;49.67;101879.41;110520;1257;22856;-50
2023/08/12 07:07:53;;;;;;;5.70;4.30;;;;;;;25.78;49.57;101881.66;110646;1256;22314;-50
2023/08/12 07:10:21;;;;;;;5.00;4.50;;;;;;;25.81;49.34;101880.73;110629;1257;22439;-50
2023/08/12 07:12:50;;;;;;;6.00;3.90;;;;;;;25.86;49.23;101884.02;110550;1275;22394;-51
2023/08/12 07:15:18;;;;;;;4.60;4.20;;;;;;;25.95;49.47;101886.73;110537;1255;22373;-50
2023/08/12 07:17:45;;;;;;;5.10;4.00;;;;;;;26.09;49.14;101887.73;110628;1256;22189;-50
2023/08/12 07:20:13;;;;;;;5.90;3.90;;;;;;;26.28;48.90;101886.42;110597;1275;23015;-50
2023/08/12 07:22:40;;;;;;;6.00;3.90;;;;;;;26.49;48.24;101886.55;110609;1256;23150;-51
2023/08/12 07:25:08;;;;;;;5.70;4.20;;;;;;;26.73;47.87;101883.92;110622;1255;22441;-50
2023/08/12 07:27:36;;;;;;;4.00;3.60;;;;;;;26.97;47.64;101886.11;110274;1260;22840;-50
2023/08/12 07:30:04;;;;;;;5.60;4.20;;;;;;;27.18;47.51;101883.46;110301;1275;22769;-50
2023/08/12 07:32:32;;;;;;;4.60;4.20;;;;;;;27.35;47.15;101888.27;110634;1254;22407;-51
2023/08/12 07:34:59;;;;;;;4.60;4.10;;;;;;;27.46;46.99;101884.99;110585;1256;22387;-50
2023/08/12 07:37:28;;;;;;;4.60;4.10;;;;;;;27.51;46.73;101884.82;110641;1256;22173;-51
2023/08/12 07:39:56;;;;;;;5.50;4.60;;;;;;;27.52;46.58;101887.76;110265;1260;22143;-50
2023/08/12 07:42:23;;;;;;;7.40;4.60;;;;;;;27.52;46.23;101887.23;110539;1256;22342;-51
2023/08/12 07:44:51;;;;;;;6.10;4.00;;;;;;;27.49;45.72;101888.34;110546;1256;22407;-50
2023/08/12 07:47:18;;;;;;;9.00;4.20;;;;;;;27.47;46.01;101892.80;110620;1256;22308;-51
2023/08/12 07:49:46;;;;;;;4.90;4.30;;;;;;;27.41;46.16;101895.54;110608;1256;22331;-50
2023/08/12 07:52:14;;;;;;;6.60;4.20;;;;;;;27.35;46.19;101896.82;110235;1260;22160;-50
2023/08/12 07:54:41;;;;;;;5.40;4.10;;;;;;;27.25;46.36;101903.09;110554;1270;22145;-51
2023/08/12 07:57:09;;;;;;;6.20;4.20;;;;;;;27.18;47.06;101908.27;110609;1256;22412;-50
2023/08/12 07:59:36;;;;;;;5.90;4.20;;;;;;;27.13;47.45;101908.44;110530;1275;22128;-50
2023/08/12 08:02:04;;;;;;;4.50;4.10;;;;;;;27.09;47.71;101910.11;110568;1267;22281;-51
2023/08/12 08:04:33;;;;;;;5.00;4.10;;;;;;;27.07;47.45;101912.77;110569;1256;22288;-51
2023/08/12 08:07:00;;;;;;;5.30;4.60;;;;;;;27.07;47.88;101915.13;110566;1275;22364;-50
2023/08/12 08:09:28;;;;;;;5.30;3.90;;;;;;;27.07;47.92;101921.68;110575;1259;22428;-50
2023/08/12 08:11:55;;;;;;;4.60;3.90;;;;;;;27.07;48.07;101918.45;110573;1256;23161;-50
2023/08/12 08:14:23;;;;;;;5.60;4.20;;;;;;;27.08;48.07;101921.05;110267;1262;22837;-50
2023/08/12 08:16:51;;;;;;;4.70;4.10;;;;;;;27.12;48.35;101924.56;110601;1256;22313;-50
2023/08/12 08:19:19;;;;;;;6.20;3.80;;;;;;;27.20;48.18;101923.95;110561;1267;22411;-50
2023/08/12 08:21:46;;;;;;;4.70;4.20;;;;;;;27.27;47.84;101924.65;110555;1267;22317;-50
2023/08/12 08:24:14;;;;;;;7.00;4.40;;;;;;;27.33;47.89;101923.34;110544;1256;22156;-50
2023/08/12 08:26:41;;;;;;;6.50;4.30;;;;;;;27.38;47.74;101919.98;110576;1256;22376;-50
2023/08/12 08:29:09;;;;;;;6.50;4.20;;;;;;;27.44;47.89;101920.81;110268;1273;22141;-50
2023/08/12 08:31:37;;;;;;;5.40;3.90;;;;;;;27.52;47.99;101917.90;110608;1257;22383;-50
2023/08/12 08:34:04;;;;;;;5.80;4.10;;;;;;;27.58;48.14;101916.70;110418;1258;22933;-50
2023/08/12 08:36:32;;;;;;;6.80;4.50;;;;;;;27.62;47.52;101914.48;110547;1267;22162;-50
2023/08/12 08:39:00;;;;;;;5.00;4.30;;;;;;;27.65;47.55;101915.61;110525;1275;22314;-50
2023/08/12 08:41:27;;;;;;;4.20;3.80;;;;;;;27.70;47.57;101919.73;110255;1257;22311;-50
2023/08/12 08:43:55;;;;;;;6.30;4.10;;;;;;;27.73;47.46;101919.89;110456;1256;22125;-50
2023/08/12 08:46:22;;;;;;;6.60;3.80;;;;;;;27.75;47.73;101918.06;110312;1259;238498;-50
2023/08/12 08:48:50;;;;;;;7.30;4.50;;;;;;;27.79;48.14;101916.35;110141;1275;22132;-50
2023/08/12 08:51:19;;;;;;;4.90;3.80;;;;;;;27.84;48.29;101917.00;110572;1269;22915;-51
2023/08/12 08:53:46;;;;;;;4.40;4.00;;;;;;;27.89;47.72;101916.06;110081;1278;22145;-50
2023/08/12 08:56:14;;;;;;;6.00;3.90;;;;;;;27.93;47.45;101913.13;110072;1260;22238;-50
2023/08/12 08:58:42;;;;;;;4.40;3.70;;;;;;;27.95;47.62;101912.25;110212;1260;22133;-50
2023/08/12 09:01:10;;;;;;;5.40;4.70;;;;;;;28.01;47.83;101910.63;110012;1262;22142;-50
2023/08/12 09:03:38;;;;;;;5.00;4.40;;;;;;;28.04;47.40;101908.18;110190;1272;22191;-50
2023/08/12 09:06:06;;;;;;;4.40;3.90;;;;;;;28.07;47.31;101906.17;110122;1261;23067;-50
2023/08/12 09:08:34;;;;;;;9.60;4.40;;;;;;;28.12;47.24;101904.23;110078;1262;22182;-51
2023/08/12 09:11:02;;;;;;;4.50;3.80;;;;;;;28.15;47.14;101907.18;110028;1278;22161;-50
2023/08/12 09:13:29;;;;;;;7.00;4.20;;;;;;;28.19;47.35;101903.45;109977;1264;22170;-50
2023/08/12 09:15:57;;;;;;;6.50;4.30;;;;;;;28.24;47.20;101903.61;109765;1280;22873;-51
2023/08/12 09:18:25;;;;;;;5.70;4.00;;;;;;;28.30;46.07;101903.49;109916;1263;22167;-50
2023/08/12 09:20:53;;;;;;;8.40;4.10;;;;;;;28.34;45.63;101902.30;109926;1267;22177;-50
2023/08/12 09:23:21;;;;;;;6.60;3.90;;;;;;;28.39;46.26;101899.21;109932;1276;22156;-50
2023/08/12 09:25:48;;;;;;;4.30;3.90;;;;;;;28.45;45.97;101898.00;110118;1262;22194;-50
2023/08/12 09:28:16;;;;;;;5.40;4.00;;;;;;;28.51;46.16;101898.05;110197;1279;22402;-51
2023/08/12 09:30:49;;;;;;;3.80;3.30;;;;;;;28.56;45.56;101897.67;110200;1275;22186;-50
2023/08/12 09:33:18;;;;;;;5.10;3.70;;;;;;;28.59;45.22;101893.73;110094;1276;22949;-50
2023/08/12 09:35:46;;;;;;;6.50;3.60;;;;;;;28.61;44.65;101895.30;110108;1263;22178;-50
2023/08/12 09:38:14;;;;;;;4.40;3.80;;;;;;;28.65;44.02;101893.05;110212;1279;22185;-50
2023/08/12 09:40:42;;;;;;;5.80;3.70;;;;;;;28.68;43.89;101891.20;110109;1262;22311;-50
2023/08/12 09:43:11;;;;;;;6.70;3.40;;;;;;;28.74;43.78;101891.58;110211;1270;23128;-50
2023/08/12 09:45:39;;;;;;;5.70;4.50;;;;;;;28.81;43.46;101894.76;110506;1260;22418;-50
2023/08/12 09:48:08;;;;;;;4.70;4.10;;;;;;;28.88;42.90;101895.48;110567;1255;22329;-50
2023/08/12 09:50:37;;;;;;;4.30;3.90;;;;;;;28.93;42.65;101888.09;110395;1275;22416;-50
2023/08/12 09:53:04;;;;;;;4.20;3.80;;;;;;;28.99;42.47;101888.70;110301;1259;22353;-50
2023/08/12 09:55:32;;;;;;;6.60;3.60;;;;;;;29.05;42.80;101888.59;110595;1257;22302;-50
2023/08/12 09:57:59;;;;;;;6.10;4.30;;;;;;;29.10;42.73;101892.63;110573;1272;22948;-50
2023/08/12 10:00:27;;;;;;;6.20;4.30;;;;;;;29.15;42.45;101889.20;110603;1266;22314;-51
2023/08/12 10:02:55;;;;;;;4.90;4.20;;;;;;;29.20;41.98;101890.25;110414;1275;22123;-50
2023/08/12 10:05:26;;;;;;;4.90;4.00;;;;;;;29.24;42.17;101887.90;110584;1257;22142;-50
2023/08/12 10:07:54;;;;;;;6.20;4.00;;;;;;;29.28;41.92;101882.60;110470;1256;22114;-51
2023/08/12 10:10:24;;;;;;;4.30;3.70;;;;;;;29.31;41.65;101884.44;110585;1270;22926;-50
2023/08/12 10:12:52;;;;;;;4.00;3.60;;;;;;;29.34;41.51;101881.50;110557;1275;22128;-50
2023/08/12 10:15:19;;;;;;;4.40;4.00;;;;;;;29.42;41.19;101878.13;110308;1269;23001;-50
2023/08/12 10:17:47;;;;;;;3.60;3.30;;;;;;;29.50;41.56;101877.66;110392;1275;22149;-50
2023/08/12 10:20:21;;;;;;;4.70;4.20;;;;;;;29.56;41.57;101876.26;110472;1260;22396;-50
2023/08/12 10:22:48;;;;;;;4.90;3.20;;;;;;;29.62;41.14;101874.14;110561;1257;22163;-51
2023/08/12 10:25:18;;;;;;;4.10;3.70;;;;;;;29.67;40.77;101877.82;110623;1257;22410;-50
2023/08/12 10:27:45;;;;;;;3.40;3.10;;;;;;;29.74;40.89;101875.82;110495;1275;22127;-50
2023/08/12 10:30:13;;;;;;;3.90;3.40;;;;;;;29.80;40.76;101878.68;110543;1270;22315;-50
2023/08/12 10:32:41;;;;;;;4.20;3.30;;;;;;;29.89;40.65;101878.33;110161;1275;22481;-50
2023/08/12 10:35:08;;;;;;;9.90;3.40;;;;;;;29.96;40.41;101873.79;110300;1275;22395;-50
2023/08/12 10:37:36;;;;;;;3.60;3.30;;;;;;;30.02;40.32;101873.39;110413;1261;22159;-50
2023/08/12 10:40:08;;;;;;;4.90;3.50;;;;;;;30.07;40.62;101872.86;110546;1259;22349;-51
2023/08/12 10:42:43;;;;;;;4.20;3.70;;;;;;;30.10;41.01;101868.08;110178;1262;22458;-50
2023/08/12 10:45:11;;;;;;;4.80;3.60;;;;;;;30.14;40.93;101864.64;110550;1256;22170;-50
2023/08/12 10:47:46;;;;;;;4.10;3.70;;;;;;;30.18;40.65;101859.33;110246;1267;22237;-51
2023/08/12 10:50:21;;;;;;;6.70;3.70;;;;;;;30.22;40.41;101855.73;110603;1257;22416;-50
2023/08/12 10:52:52;;;;;;;5.00;3.40;;;;;;;30.24;40.52;101856.06;110610;1256;22371;-51
2023/08/12 10:55:24;;;;;;;7.10;4.00;;;;;;;30.29;40.84;101854.39;110516;1273;22119;-51
2023/08/12 10:57:53;;;;;;;3.40;3.10;;;;;;;30.33;40.52;101857.61;110450;1260;22185;-50
2023/08/12 11:00:24;;;;;;;4.90;4.10;;;;;;;30.38;40.27;101857.41;110570;1268;22353;-51
2023/08/12 11:02:56;;;;;;;4.20;3.80;;;;;;;30.41;40.60;101854.64;110124;1263;22123;-50
2023/08/12 11:05:24;;;;;;;4.30;3.90;;;;;;;30.40;40.62;101859.85;110536;1273;22140;-51
2023/08/12 11:07:56;;;;;;;4.40;3.60;;;;;;;30.39;40.87;101860.52;110666;1257;23040;-51
2023/08/12 11:10:25;;;;;;;4.90;3.30;;;;;;;30.41;41.35;101859.63;110423;1275;22323;-51
2023/08/12 11:12:55;;;;;;;4.50;3.50;;;;;;;30.43;40.86;101860.86;110240;1273;22199;-51
2023/08/12 11:15:37;;;;;;;4.90;3.30;;;;;;;30.44;41.03;101860.80;110556;1256;22356;-50
2023/08/12 11:18:09;;;;;;;3.50;3.20;;;;;;;30.45;41.34;101861.01;110610;1258;22537;-50
2023/08/12 11:20:37;;;;;;;3.70;3.00;;;;;;;30.47;41.78;101859.58;110582;1272;22299;-51